createdAt,value
2018-07-12T00:02:06.354Z,72.51
2018-07-12T00:04:33.960Z,72.20
2018-07-12T00:07:01.519Z,72.10
2018-07-12T00:09:28.963Z,73.00
2018-07-12T00:11:56.413Z,73.14
2018-07-12T00:14:23.873Z,73.04
2018-07-12T00:16:51.338Z,72.68
2018-07-12T00:19:18.911Z,73.27
2018-07-12T00:21:46.356Z,73.38
2018-07-12T00:24:13.892Z,73.13
2018-07-12T00:26:41.353Z,73.33
2018-07-12T00:29:08.806Z,74.32
2018-07-12T00:31:36.277Z,73.88
2018-07-12T00:34:03.746Z,73.93
2018-07-12T00:36:31.205Z,74.24
2018-07-12T00:38:58.658Z,73.38
2018-07-12T00:41:26.132Z,73.75
2018-07-12T00:43:53.622Z,73.95
2018-07-12T00:46:21.067Z,74.48
2018-07-12T00:48:48.530Z,73.99
2018-07-12T00:51:15.967Z,74.01
2018-07-12T00:53:43.429Z,73.95
2018-07-12T00:56:10.903Z,74.20
2018-07-12T00:58:38.346Z,73.50
2018-07-12T01:01:05.790Z,74.09
2018-07-12T01:03:33.247Z,74.05
2018-07-12T01:06:00.749Z,74.62
2018-07-12T01:08:28.271Z,74.42
2018-07-12T01:10:55.862Z,75.21
2018-07-12T01:13:23.367Z,75.04
2018-07-12T01:15:50.834Z,75.14
2018-07-12T01:18:18.298Z,75.17
2018-07-12T01:20:45.753Z,75.38
2018-07-12T01:23:13.202Z,75.02
2018-07-12T01:25:40.638Z,75.18
2018-07-12T01:28:08.081Z,74.75
2018-07-12T01:30:35.591Z,76.17
2018-07-12T01:33:03.061Z,77.41
2018-07-12T01:35:30.562Z,76.79
2018-07-12T01:37:58.013Z,76.75
2018-07-12T01:40:25.517Z,76.68
2018-07-12T01:42:52.993Z,77.37
2018-07-12T01:45:20.480Z,77.30
2018-07-12T01:47:47.959Z,76.71
2018-07-12T01:50:15.474Z,77.03
2018-07-12T01:52:42.947Z,76.79
2018-07-12T01:55:10.406Z,76.68
2018-07-12T01:57:37.853Z,77.09
2018-07-12T02:00:05.440Z,77.37
2018-07-12T02:02:32.911Z,77.71
2018-07-12T02:05:00.354Z,77.07
2018-07-12T02:07:27.926Z,77.22
2018-07-12T02:09:55.392Z,77.57
2018-07-12T02:12:22.926Z,78.23
2018-07-12T02:14:50.403Z,77.57
2018-07-12T02:17:17.905Z,78.14
2018-07-12T02:19:45.414Z,78.33
2018-07-12T02:22:12.889Z,78.26
2018-07-12T02:24:40.354Z,78.50
2018-07-12T02:27:07.860Z,77.58
2018-07-12T02:29:35.322Z,78.52
2018-07-12T02:32:02.790Z,77.70
2018-07-12T02:34:30.296Z,78.12
2018-07-12T02:36:57.758Z,78.18
2018-07-12T02:39:25.231Z,77.99
2018-07-12T02:41:52.761Z,78.28
2018-07-12T02:44:20.253Z,77.95
2018-07-12T02:46:47.698Z,78.52
2018-07-12T02:49:15.483Z,78.14
2018-07-12T02:51:42.954Z,77.27
2018-07-12T02:54:10.469Z,77.12
2018-07-12T02:56:38.018Z,76.66
2018-07-12T02:59:05.470Z,77.25
2018-07-12T03:01:32.947Z,76.82
2018-07-12T03:04:00.411Z,76.21
2018-07-12T03:06:27.863Z,76.08
2018-07-12T03:08:55.344Z,76.85
2018-07-12T03:11:22.824Z,76.63
2018-07-12T03:13:50.411Z,76.60
2018-07-12T03:16:17.887Z,75.92
2018-07-12T03:18:45.363Z,75.69
2018-07-12T03:21:12.826Z,76.32
2018-07-12T03:23:40.334Z,76.14
2018-07-12T03:26:07.806Z,75.52
2018-07-12T03:28:35.288Z,76.35
2018-07-12T03:31:02.752Z,76.13
2018-07-12T03:33:30.203Z,75.87
2018-07-12T03:35:57.672Z,75.80
2018-07-12T03:38:25.179Z,75.50
2018-07-12T03:40:52.657Z,75.77
2018-07-12T03:43:20.331Z,75.21
2018-07-12T03:45:47.789Z,76.33
2018-07-12T03:48:15.296Z,76.44
2018-07-12T03:50:42.758Z,75.38
2018-07-12T03:53:10.234Z,75.21
2018-07-12T03:55:37.728Z,75.11
2018-07-12T03:58:05.231Z,75.26
2018-07-12T04:00:32.903Z,74.80
2018-07-12T04:03:00.433Z,75.15
2018-07-12T04:05:27.952Z,76.27
2018-07-12T04:07:55.401Z,77.05
2018-07-12T04:10:22.882Z,77.13
2018-07-12T04:12:50.367Z,76.42
2018-07-12T04:15:17.846Z,76.54
2018-07-12T04:17:45.864Z,76.64
2018-07-12T04:20:13.347Z,77.19
2018-07-12T04:22:40.799Z,77.12
2018-07-12T04:25:08.269Z,77.01
2018-07-12T04:27:35.716Z,76.77
2018-07-12T04:30:04.216Z,77.14
2018-07-12T04:32:31.665Z,76.67
2018-07-12T04:34:59.160Z,75.93
2018-07-12T04:37:26.610Z,76.21
2018-07-12T04:39:54.090Z,75.74
2018-07-12T04:42:21.566Z,76.21
2018-07-12T04:44:49.022Z,76.28
2018-07-12T04:47:16.543Z,74.93
2018-07-12T04:49:43.990Z,75.16
2018-07-12T04:52:11.442Z,74.04
2018-07-12T04:54:38.917Z,72.64
2018-07-12T04:57:06.449Z,70.77
2018-07-12T04:59:33.897Z,66.46
2018-07-12T05:02:01.371Z,61.77
2018-07-12T05:04:28.928Z,59.73
2018-07-12T05:06:56.400Z,56.26
2018-07-12T05:09:23.870Z,53.94
2018-07-12T05:11:51.341Z,51.13
2018-07-12T05:14:18.938Z,49.06
2018-07-12T05:16:46.596Z,49.43
2018-07-12T05:19:14.062Z,47.75
2018-07-12T05:21:41.520Z,47.24
2018-07-12T05:24:09.010Z,45.17
2018-07-12T05:26:36.555Z,44.90
2018-07-12T05:29:04.013Z,44.57
2018-07-12T05:31:31.478Z,44.12
2018-07-12T05:33:58.983Z,44.51
2018-07-12T05:37:00.909Z,45.18
2018-07-12T05:39:29.708Z,45.07
2018-07-12T05:41:58.575Z,45.16
2018-07-12T05:44:27.370Z,46.12
2018-07-12T05:46:56.154Z,45.10
2018-07-12T05:49:25.024Z,44.09
2018-07-12T05:51:53.865Z,44.34
2018-07-12T05:54:22.688Z,44.70
2018-07-12T05:56:51.844Z,46.36
2018-07-12T05:59:20.887Z,46.50
2018-07-12T06:02:00.639Z,47.32
2018-07-12T06:04:29.454Z,48.25
2018-07-12T06:06:58.286Z,49.66
2018-07-12T06:09:27.051Z,51.57
2018-07-12T06:11:55.828Z,51.42
2018-07-12T06:14:25.030Z,52.43
2018-07-12T06:16:53.834Z,52.96
2018-07-12T06:19:22.607Z,53.64
2018-07-12T06:21:51.397Z,54.97
2018-07-12T06:24:20.177Z,54.86
2018-07-12T06:26:48.955Z,55.44
2018-07-12T06:29:17.762Z,55.43
2018-07-12T06:31:47.577Z,55.64
2018-07-12T06:34:16.461Z,56.15
2018-07-12T06:36:45.426Z,56.02
2018-07-12T06:39:14.210Z,55.92
2018-07-12T06:41:43.574Z,56.65
2018-07-12T06:44:12.407Z,56.50
2018-07-12T06:46:41.230Z,58.02
2018-07-12T06:49:10.005Z,57.11
2018-07-12T06:51:38.827Z,57.89
2018-07-12T06:54:08.017Z,59.09
2018-07-12T06:56:37.158Z,59.31
2018-07-12T06:59:06.553Z,58.78
2018-07-12T07:01:35.369Z,57.92
2018-07-12T07:04:04.386Z,58.89
2018-07-12T07:06:33.153Z,57.24
2018-07-12T07:09:01.982Z,57.41
2018-07-12T07:11:30.848Z,57.39
2018-07-12T07:13:59.716Z,57.28
2018-07-12T07:16:28.510Z,57.60
2018-07-12T07:18:57.286Z,57.39
2018-07-12T07:21:26.070Z,58.10
2018-07-12T07:23:54.995Z,58.66
2018-07-12T07:26:23.957Z,57.74
2018-07-12T07:28:53.208Z,56.30
2018-07-12T07:31:22.068Z,56.48
2018-07-12T07:33:51.087Z,56.92
2018-07-12T07:36:20.174Z,55.70
2018-07-12T07:38:48.968Z,56.48
2018-07-12T07:41:18.555Z,56.35
2018-07-12T07:43:47.320Z,56.45
2018-07-12T07:46:16.117Z,57.51
2018-07-12T07:48:45.447Z,56.21
2018-07-12T07:51:14.203Z,56.04
2018-07-12T07:53:43.023Z,55.92
2018-07-12T07:56:11.798Z,56.73
2018-07-12T07:58:40.783Z,54.75
2018-07-12T08:01:09.547Z,56.06
2018-07-12T08:03:38.358Z,55.06
2018-07-12T08:06:07.227Z,54.68
2018-07-12T08:08:36.027Z,54.31
2018-07-12T08:11:04.846Z,54.23
2018-07-12T08:13:33.637Z,54.68
2018-07-12T08:16:02.436Z,53.72
2018-07-12T08:18:31.200Z,54.82
2018-07-12T08:21:00.004Z,51.62
2018-07-12T08:23:28.846Z,53.45
2018-07-12T08:25:57.809Z,52.20
2018-07-12T08:28:28.646Z,51.79
2018-07-12T08:30:57.447Z,51.35
2018-07-12T08:33:26.529Z,50.63
2018-07-12T08:35:55.482Z,48.79
2018-07-12T08:38:24.258Z,48.39
2018-07-12T08:40:53.010Z,48.84
2018-07-12T08:43:21.880Z,47.31
2018-07-12T08:45:50.668Z,46.38
2018-07-12T08:48:19.470Z,46.56
2018-07-12T08:50:48.276Z,45.59
2018-07-12T08:53:17.109Z,46.07
2018-07-12T08:55:45.854Z,46.37
2018-07-12T08:58:14.613Z,46.67
2018-07-12T09:00:43.428Z,46.60
2018-07-12T09:03:12.198Z,46.13
2018-07-12T09:05:41.083Z,45.96
2018-07-12T09:08:09.857Z,45.49
2018-07-12T09:10:38.645Z,45.16
2018-07-12T09:13:07.433Z,45.42
2018-07-12T09:15:36.189Z,45.53
2018-07-12T09:18:05.034Z,45.00
2018-07-12T09:20:33.777Z,43.63
2018-07-12T09:23:02.636Z,43.86
2018-07-12T09:25:31.572Z,44.49
2018-07-12T09:28:00.511Z,43.33
2018-07-12T09:30:29.309Z,41.38
2018-07-12T09:32:58.117Z,40.21
2018-07-12T09:35:26.890Z,40.43
2018-07-12T09:37:55.641Z,41.60
2018-07-12T09:40:24.754Z,40.92
2018-07-12T09:42:54.064Z,41.61
2018-07-12T09:45:22.942Z,41.85
2018-07-12T09:47:51.714Z,40.96
2018-07-12T09:50:20.523Z,40.42
2018-07-12T09:52:49.327Z,39.40
2018-07-12T09:55:18.201Z,39.46
2018-07-12T09:57:57.992Z,38.98
2018-07-12T10:01:30.708Z,40.47
2018-07-12T10:03:59.462Z,40.25
2018-07-12T10:06:32.215Z,39.83
2018-07-12T10:10:04.013Z,41.57
2018-07-12T10:12:37.851Z,40.39
2018-07-12T10:15:09.631Z,42.53
2018-07-12T10:17:48.552Z,40.71
2018-07-12T10:20:17.713Z,39.68
2018-07-12T10:22:46.508Z,41.84
2018-07-12T10:25:15.269Z,40.57
2018-07-12T10:27:44.049Z,39.90
2018-07-12T10:30:12.827Z,41.38
2018-07-12T10:32:42.282Z,39.66
2018-07-12T10:35:11.141Z,38.15
2018-07-12T10:37:39.899Z,38.75
2018-07-12T10:40:08.651Z,36.95
2018-07-12T10:42:37.399Z,38.40
2018-07-12T10:45:06.238Z,37.92
2018-07-12T10:47:35.131Z,37.96
2018-07-12T10:50:04.004Z,37.85
2018-07-12T10:52:32.833Z,37.60
2018-07-12T10:55:01.782Z,38.25
2018-07-12T10:57:30.638Z,37.33
2018-07-12T10:59:59.435Z,37.75
2018-07-12T11:02:28.213Z,37.32
2018-07-12T11:04:57.005Z,37.69
2018-07-12T11:07:25.812Z,36.69
2018-07-12T11:09:54.586Z,38.76
2018-07-12T11:12:23.437Z,37.30
2018-07-12T11:14:52.194Z,38.00
2018-07-12T11:17:21.889Z,38.03
2018-07-12T11:19:50.638Z,38.55
2018-07-12T11:22:19.867Z,37.72
2018-07-12T11:24:48.654Z,36.73
2018-07-12T11:27:17.537Z,36.97
2018-07-12T11:29:53.973Z,36.37
2018-07-12T11:32:22.745Z,36.11
2018-07-12T11:34:52.062Z,36.26
2018-07-12T11:37:25.864Z,36.94
2018-07-12T11:39:54.602Z,35.12
2018-07-12T11:42:23.583Z,35.13
2018-07-12T11:44:52.370Z,35.23
2018-07-12T11:47:21.341Z,35.79
2018-07-12T11:49:50.142Z,35.78
2018-07-12T11:52:18.894Z,36.47
2018-07-12T11:54:47.767Z,36.80
2018-07-12T11:57:16.610Z,36.09
2018-07-12T11:59:45.345Z,35.53
2018-07-12T12:02:14.185Z,33.84
2018-07-12T12:04:42.950Z,36.76
2018-07-12T12:07:11.686Z,36.41
2018-07-12T12:09:40.413Z,35.65
2018-07-12T12:12:09.206Z,36.28
2018-07-12T12:14:38.157Z,36.60
2018-07-12T12:17:06.957Z,36.10
2018-07-12T12:19:36.750Z,37.42
2018-07-12T12:22:05.473Z,37.24
2018-07-12T12:24:34.310Z,37.01
2018-07-12T12:27:03.097Z,36.05
2018-07-12T12:29:31.862Z,36.54
2018-07-12T12:32:00.623Z,35.71
2018-07-12T12:34:29.431Z,35.23
2018-07-12T12:36:58.172Z,36.31
2018-07-12T12:39:26.932Z,36.95
2018-07-12T12:41:55.764Z,37.04
2018-07-12T12:44:24.679Z,36.07
2018-07-12T12:46:53.468Z,36.90
2018-07-12T12:49:22.242Z,36.58
2018-07-12T12:51:51.022Z,36.70
2018-07-12T12:54:19.758Z,35.49
2018-07-12T12:56:48.513Z,35.50
2018-07-12T12:59:17.266Z,34.72
2018-07-12T13:01:46.097Z,34.84
2018-07-12T13:04:14.854Z,34.51
2018-07-12T13:06:43.643Z,34.12
2018-07-12T13:09:12.565Z,35.11
2018-07-12T13:11:41.326Z,33.17
2018-07-12T13:14:10.168Z,34.21
2018-07-12T13:16:38.930Z,34.89
2018-07-12T13:19:07.678Z,33.09
2018-07-12T13:21:36.451Z,33.21
2018-07-12T13:24:05.662Z,33.66
2018-07-12T13:26:34.483Z,34.14
2018-07-12T13:29:03.282Z,33.47
2018-07-12T13:31:32.046Z,34.09
2018-07-12T13:34:00.910Z,34.61
2018-07-12T13:36:29.671Z,41.00
2018-07-12T13:38:58.491Z,43.46
2018-07-12T13:41:27.253Z,43.81
2018-07-12T13:44:07.428Z,43.29
2018-07-12T13:46:36.237Z,45.30
2018-07-12T13:49:05.193Z,45.29
2018-07-12T13:51:34.035Z,45.19
2018-07-12T13:54:02.818Z,45.60
2018-07-12T13:56:31.617Z,45.27
2018-07-12T13:59:00.491Z,45.95
2018-07-12T14:01:29.365Z,46.18
2018-07-12T14:03:58.107Z,45.70
2018-07-12T14:06:26.915Z,46.66
2018-07-12T14:08:55.727Z,46.34
2018-07-12T14:11:24.518Z,46.96
2018-07-12T14:13:53.515Z,47.01
2018-07-12T14:16:22.803Z,47.13
2018-07-12T14:18:51.712Z,47.28
2018-07-12T14:21:20.476Z,47.75
2018-07-12T14:23:49.278Z,47.47
2018-07-12T14:26:18.015Z,46.88
2018-07-12T14:28:46.783Z,47.65
2018-07-12T14:31:15.780Z,46.81
2018-07-12T14:33:44.560Z,44.99
2018-07-12T14:36:13.378Z,44.09
2018-07-12T14:38:42.122Z,44.72
2018-07-12T14:41:10.918Z,45.44
2018-07-12T14:43:39.745Z,45.52
2018-07-12T14:46:08.851Z,45.33
2018-07-12T14:48:37.671Z,45.30
2018-07-12T14:51:06.462Z,44.06
2018-07-12T14:53:35.251Z,43.52
2018-07-12T14:56:04.220Z,43.43
2018-07-12T14:58:32.959Z,44.04
2018-07-12T15:01:01.776Z,42.64
2018-07-12T15:03:30.624Z,42.43
2018-07-12T15:05:59.412Z,43.02
2018-07-12T15:08:28.200Z,43.09
2018-07-12T15:10:56.994Z,42.26
2018-07-12T15:13:26.055Z,42.75
2018-07-12T15:15:54.841Z,42.64
2018-07-12T15:18:23.616Z,41.04
2018-07-12T15:20:52.403Z,41.59
2018-07-12T15:23:21.227Z,42.28
2018-07-12T15:25:50.030Z,42.48
2018-07-12T15:28:19.003Z,42.51
2018-07-12T15:30:47.762Z,43.38
2018-07-12T15:33:16.557Z,43.03
2018-07-12T15:35:45.398Z,43.69
2018-07-12T15:38:14.302Z,42.71
2018-07-12T15:40:43.134Z,41.93
2018-07-12T15:43:13.050Z,42.48
2018-07-12T15:45:45.713Z,42.80
2018-07-12T15:48:16.004Z,42.89
2018-07-12T15:50:46.002Z,43.20
2018-07-12T15:53:16.720Z,43.01
2018-07-12T15:55:46.132Z,43.08
2018-07-12T15:58:14.959Z,41.95
2018-07-12T16:00:43.782Z,41.43
2018-07-12T16:03:12.579Z,40.19
2018-07-12T16:05:41.466Z,40.46
2018-07-12T16:08:10.266Z,43.16
2018-07-12T16:10:39.311Z,43.16
2018-07-12T16:13:08.440Z,43.92
2018-07-12T16:15:37.223Z,44.18
2018-07-12T16:18:06.035Z,45.20
2018-07-12T16:20:34.791Z,45.58
2018-07-12T16:23:04.478Z,46.47
2018-07-12T16:25:33.357Z,46.22
2018-07-12T16:28:02.140Z,46.54
2018-07-12T16:30:30.949Z,46.24
2018-07-12T16:32:59.739Z,46.54
2018-07-12T16:35:28.613Z,45.76
2018-07-12T16:37:57.491Z,45.16
2018-07-12T16:40:26.984Z,44.62
2018-07-12T16:42:55.768Z,44.92
2018-07-12T16:45:24.601Z,45.51
2018-07-12T16:47:53.408Z,45.63
2018-07-12T16:50:22.256Z,47.27
2018-07-12T16:52:51.016Z,48.49
2018-07-12T16:55:19.821Z,47.68
2018-07-12T16:57:48.634Z,49.53
2018-07-12T17:00:19.794Z,50.31
2018-07-12T17:02:49.458Z,50.01
2018-07-12T17:05:20.218Z,50.77
2018-07-12T17:07:49.228Z,49.69
2018-07-12T17:10:18.149Z,49.85
2018-07-12T17:12:47.031Z,50.44
2018-07-12T17:15:15.835Z,50.40
2018-07-12T19:19:10.954Z,61.45
2018-07-12T19:21:40.167Z,61.45
2018-07-12T19:24:08.948Z,62.16
2018-07-12T19:26:38.540Z,62.13
2018-07-12T19:29:07.627Z,62.15
2018-07-12T19:31:36.471Z,62.37
2018-07-12T19:34:05.274Z,61.95
2018-07-12T19:36:34.063Z,62.61
2018-07-12T19:39:03.001Z,62.73
2018-07-12T19:41:32.156Z,61.98
2018-07-12T19:44:01.158Z,62.95
2018-07-12T19:46:30.085Z,62.09
2018-07-12T19:48:59.175Z,62.48
2018-07-12T19:51:29.157Z,62.61
2018-07-12T19:53:57.930Z,63.33
2018-07-12T19:56:26.753Z,62.83
2018-07-12T19:58:55.652Z,63.60
2018-07-12T20:01:24.632Z,63.61
2018-07-12T20:03:53.501Z,64.09
2018-07-12T20:06:22.515Z,64.31
2018-07-12T20:08:51.371Z,63.85
2018-07-12T20:11:20.176Z,63.82
2018-07-12T20:13:49.049Z,64.24
2018-07-12T20:16:17.947Z,64.23
2018-07-12T20:18:46.735Z,64.88
2018-07-12T20:21:15.594Z,65.36
2018-07-12T20:23:44.360Z,65.40
2018-07-12T20:26:15.215Z,65.76
2018-07-12T20:28:44.156Z,65.71
2018-07-12T20:31:13.012Z,65.78
2018-07-12T20:33:42.344Z,64.88
2018-07-12T20:36:11.293Z,65.63
2018-07-12T20:38:40.882Z,65.85
2018-07-12T20:41:09.703Z,64.86
2018-07-12T20:43:38.559Z,64.82
2018-07-12T20:46:08.466Z,65.25
2018-07-12T20:48:37.264Z,65.42
2018-07-12T20:51:06.364Z,64.64
2018-07-12T20:53:35.171Z,64.70
2018-07-12T20:56:03.981Z,65.40
2018-07-12T20:58:32.779Z,64.50
2018-07-12T21:01:01.569Z,63.85
2018-07-12T21:03:30.510Z,63.76
2018-07-12T21:05:59.324Z,62.79
2018-07-12T21:08:28.148Z,62.99
2018-07-12T21:10:56.884Z,62.52
2018-07-12T21:13:25.688Z,63.63
2018-07-12T21:15:54.532Z,66.00
2018-07-12T21:18:23.343Z,64.47
2018-07-12T21:20:52.158Z,65.31
2018-07-12T21:23:20.928Z,64.83
2018-07-12T21:25:49.736Z,64.02
2018-07-12T21:28:18.537Z,63.78
2018-07-12T21:30:47.386Z,64.37
2018-07-12T21:33:16.191Z,64.01
2018-07-12T21:35:45.146Z,63.33
2018-07-12T21:38:14.051Z,64.02
2018-07-12T21:40:42.851Z,63.32
2018-07-12T21:43:11.703Z,62.84
2018-07-12T21:45:40.484Z,63.61
2018-07-12T21:48:09.365Z,63.58
2018-07-12T21:50:38.159Z,62.99
2018-07-12T21:53:07.011Z,63.01
2018-07-12T21:55:35.831Z,63.21
2018-07-12T21:58:04.649Z,63.13
2018-07-12T22:00:34.137Z,64.53
2018-07-12T22:03:02.946Z,64.56
2018-07-12T22:05:31.752Z,64.13
2018-07-12T22:08:09.403Z,64.21
2018-07-12T22:10:38.977Z,65.71
2018-07-12T22:13:08.064Z,66.15
2018-07-12T22:15:36.887Z,65.57
2018-07-12T22:18:05.722Z,66.32
2018-07-12T22:20:34.547Z,66.27
2018-07-12T22:23:03.857Z,66.89
2018-07-12T22:25:33.143Z,67.57
2018-07-12T22:28:01.996Z,67.86
2018-07-12T22:30:31.290Z,68.01
2018-07-12T22:33:01.454Z,67.12
2018-07-12T22:35:30.374Z,67.19
2018-07-12T22:38:00.304Z,67.34
2018-07-12T22:40:29.299Z,68.16
2018-07-12T22:42:58.366Z,68.06
2018-07-12T22:45:27.144Z,68.23
2018-07-12T22:47:56.169Z,68.15
2018-07-12T22:50:25.336Z,69.25
2018-07-12T22:52:54.263Z,68.95
2018-07-12T22:55:23.175Z,67.79
2018-07-12T22:57:51.959Z,68.92
2018-07-12T23:00:20.892Z,68.16
2018-07-12T23:02:49.686Z,68.92
2018-07-12T23:05:18.530Z,69.61
2018-07-12T23:07:47.362Z,69.91
2018-07-12T23:10:16.137Z,69.36
2018-07-12T23:12:44.922Z,68.82
2018-07-12T23:15:13.682Z,69.17
2018-07-12T23:17:42.469Z,68.35
2018-07-12T23:20:11.280Z,69.14
2018-07-12T23:22:40.082Z,69.23
2018-07-12T23:25:08.847Z,69.37
2018-07-12T23:27:37.619Z,70.06
2018-07-12T23:30:07.048Z,69.76
2018-07-12T23:32:35.831Z,70.60
2018-07-12T23:35:04.700Z,70.54
2018-07-12T23:37:33.520Z,70.73
2018-07-12T23:40:02.300Z,70.16
2018-07-12T23:42:31.036Z,70.22
2018-07-12T23:44:59.819Z,70.12
2018-07-12T23:47:28.612Z,69.96
2018-07-12T23:49:57.399Z,70.00
2018-07-12T23:52:26.185Z,70.90
2018-07-12T23:54:54.997Z,70.94
2018-07-12T23:57:23.955Z,70.94
2018-07-12T23:59:52.697Z,70.16
